Decoded Metar for KRME (ROME in NY, USA) (IATA:RME) | Meteo·Mobile Aviation Weather
aviador You're here:

KRME Decoded Metar

ROME in NY, USA
Report Time2019-02-22 13:53:00
UTC Time2019-02-22 14:19:49
Flight Rules vfr VFR
Wind300° at 06 kt
W.Decomp.*RWY 33: 5.7 kt HW 1.8 kt LCW
W.Rank300° ranks 7
Current wind is below 300° avg. (9.1)
Visibility9999 m
Phenomena:N/A
Clouds:Overcast 040 Hf
Expected CloudBase > 1,600 ft AGL from Temp-Dew spread
Ceiling4,000 ft
Temp-1°C (ISA -15)
Dew Point-5°C (75% RH)
AAT-5.8°C
QNH1029 hPa
Density Alt-1,814 ft
Elevation505 ft
Report Wrong Elevation
Raw Report
KRME 221353Z 30006KT 10SM OVC040 M01/M05 A3039 RMK AO2 SLP294
T10111050 $=

Extra information for KRME:More info

Metar Taf Metar & Taf Last 4 Metars F.Rules Stats Wind Profile Meteogram Temp Stats Airport Information Weather charts Add Link Nearby VenuesMetar ALERT Operation Metar Decoded Social comments

AIRNAV info for KRME